Nearby METAR Reports

 

KSJC - San Jose, California, USA
Distance from station: NE 14km
Updated: 17/11/2018 12:53
Smoke, Haze, Overcast
Smoke, Haze, Overcast
 Wind from calm
Wind: Calm
Temperature: 9°C
Dew Point: -1°C
Humidity: 50%
Barometer: 1017.6 hPa
Summary: Smoke, Haze
Clouds: Overcast
Visibility: 4 km
Cloud details: Few Clouds 30 m
Mostly cloudy 610 m
Overcast 914 m
2018/11/17 16:53 KSJC 171653Z 00000KT 2 1/2SM FU HZ FEW001 BKN020 OVC030 09/M01 A3005 RMK AO2 SLP176 FU FEW001 FU BKN020 FU OVC030 T00891006
KNUQ - Moffett Nas/Mtn, California, USA
Distance from station: N 14km
Updated: 17/11/2018 12:56
Smoke, Clear
Smoke, Clear
 Wind from calm
Wind: Calm
Temperature: 9°C
Dew Point: 3°C
Humidity: 66%
Barometer: 1017.9 hPa
Summary: Smoke
Clouds: Clear
Visibility: 2.4 km
2018/11/17 16:56 KNUQ 171656Z 00000KT 1 1/2SM FU CLR 09/03 A3006 RMK AO2 SLP183 T00890028
 
KPAO - Palo Alto, California, USA
Distance from station: NNW 23km
Updated: 17/11/2018 12:47
Smoke, Clear
Smoke, Clear
 Wind from calm
Wind: Calm
Temperature: 10°C
Dew Point: 4°C
Humidity: 67%
Barometer: 1018.3 hPa
Summary: Smoke
Clouds: Clear
Visibility: 4 km
2018/11/17 16:47 KPAO 171647Z 00000KT 2 1/2SM FU SKC 10/04 A3007
KRHV - San Jose/Reid, California, USA
Distance from station: ENE 19km
Updated: 17/11/2018 12:47
Smoke, Clear
Smoke, Clear
 Wind from calm
Wind: Calm
Temperature: 9°C
Dew Point: 0°C
Humidity: 54%
Barometer: 1016.9 hPa
Summary: Smoke
Clouds: Clear
Visibility: 5 km
2018/11/17 16:47 KRHV 171647Z 00000KT 3SM FU SKC 09/00 A3003
 
KOAK - Oakland, California, USA
Distance from station: NNW 50km
Updated: 17/11/2018 12:53
Haze, Mostly cloudy
Haze, Mostly cloudy
 Wind from calm
Wind: Calm
Temperature: 11°C
Dew Point: 3°C
Humidity: 58%
Barometer: 1018.3 hPa
Summary: Haze
Clouds: Mostly cloudy
Visibility: 2 km
Cloud details: Mostly cloudy 640 m
2018/11/17 16:53 KOAK 171653Z 00000KT 1 1/4SM HZ BKN021 11/03 A3007 RMK AO2 SLP180 FU BKN021 T01110028
KSQL - San Carlos Airpo, California, USA
Distance from station: NW 34km
Updated: 17/11/2018 12:54
Smoke, Mist, Partly cloudy
Smoke, Mist, Partly cloudy
 Wind from calm
Wind: Calm
Temperature: 10°C
Dew Point: 7°C
Humidity: 82%
Barometer: 1017.9 hPa
Summary: Smoke, Mist
Clouds: Partly cloudy
Visibility: 2.4 km
Cloud details: Partly cloudy 610 m
2018/11/17 16:54 KSQL 171654Z 00000KT 1 1/2SM FU BR SCT020 10/07 A3006
 
KSFO - San Francisco, California, USA
Distance from station: NW 49km
Updated: 17/11/2018 12:56
Haze, Mostly cloudy
Haze, Mostly cloudy
 Wind from calm
Wind: Calm
Temperature: 11°C
Dew Point: 7°C
Humidity: 77%
Barometer: 1017.9 hPa
Summary: Haze
Clouds: Mostly cloudy
Visibility: 2.4 km
Cloud details: Few Clouds 244 m
Mostly cloudy 427 m
Mostly cloudy 549 m
2018/11/17 16:56 KSFO 171656Z 00000KT 1 1/2SM HZ FEW008 BKN014 BKN018 11/07 A3006 RMK AO2 SLP177 T01110067
KE16 - San Martin, California, USA
Distance from station: ESE 43km
Updated: 17/11/2018 13:10
Haze, Clear
Haze, Clear
 Wind from calm
Wind: Calm
Temperature: 8°C
Dew Point: 0°C
Humidity: 57%
Barometer: 1018.3 hPa
Summary: Haze
Clouds: Clear
Visibility: 6 km
2018/11/17 17:10 KE16 171710Z AUTO 00000KT 4SM HZ CLR 08/00 A3007 RMK AO2
 
KWVI - Watsonville, California, USA
Distance from station: SSE 44km
Updated: 17/11/2018 13:15
Mist, Few clouds
Mist, Few clouds
 Wind from calm
Wind: Calm
Temperature: 11°C
Dew Point: 8°C
Humidity: 82%
Barometer: 1018.3 hPa
Summary: Mist
Clouds: Few Clouds
Visibility: 2.8 km
Cloud details: Few Clouds 183 m
2018/11/17 17:15 KWVI 171715Z AUTO 00000KT 1 3/4SM BR FEW006 11/08 A3007 RMK AO2 T01060083
KHAF - Half Moon Bay, California, USA
Distance from station: WNW 50km
Updated: 17/11/2018 13:20
Haze, Overcast
Haze, Overcast
 Wind from SE
Wind: SE 9 km/h
Temperature: 10°C
Wind Chill: 9°C
Dew Point: 8°C
Humidity: 88%
Barometer: 1018.6 hPa
Summary: Haze
Clouds: Overcast
Visibility: 4 km
Cloud details: Overcast 274 m
2018/11/17 17:20 KHAF 171720Z AUTO 14005KT 2 1/2SM HZ OVC009 10/08 A3008 RMK AO2
 
KHWD - Hayward, California, USA
Distance from station: N 44km
Updated: 17/11/2018 12:54
Haze, Smoke, Clear
Haze, Smoke, Clear
 Wind from calm
Wind: Calm
Temperature: 11°C
Dew Point: -1°C
Humidity: 44%
Barometer: 1017.6 hPa
Summary: Haze, Smoke
Clouds: Clear
Visibility: 2 km
2018/11/17 16:54 KHWD 171654Z 00000KT 1 1/4SM HZ FU CLR 11/M01 A3005 RMK AO2 SLP187 T01061006
KLVK - Livermore, California, USA
Distance from station: NNE 51km
Updated: 17/11/2018 12:53
Haze, Smoke, Clear
Haze, Smoke, Clear
 Wind from calm
Wind: Calm
Temperature: 6°C
Dew Point: -2°C
Humidity: 57%
Barometer: 1017.6 hPa
Summary: Haze, Smoke
Clouds: Clear
Visibility: 2 km
2018/11/17 16:53 KLVK 171653Z 00000KT 1SM HZ FU CLR 06/M02 A3005 RMK AO2 SLP178 T00611017